createdAt,value
2023-03-08T00:00:30.386Z,99153.25
2023-03-08T00:02:58.059Z,99159.00
2023-03-08T00:05:27.178Z,99158.19
2023-03-08T00:07:55.002Z,99146.66
2023-03-08T00:10:23.202Z,99157.72
2023-03-08T00:12:50.891Z,99168.44
2023-03-08T00:15:19.210Z,99156.88
2023-03-08T00:17:46.936Z,99156.88
2023-03-08T00:20:15.694Z,99156.88
2023-03-08T00:22:44.815Z,99155.25
2023-03-08T00:25:16.309Z,99161.81
2023-03-08T00:27:44.019Z,99152.91
2023-03-08T00:30:13.252Z,99152.59
2023-03-08T00:32:41.015Z,99154.41
2023-03-08T00:35:09.509Z,99152.75
2023-03-08T00:37:37.188Z,99150.78
2023-03-08T00:40:10.463Z,99140.38
2023-03-08T00:42:38.204Z,99143.00
2023-03-08T00:45:06.555Z,99139.72
2023-03-08T00:47:35.450Z,99148.28
2023-03-08T00:50:03.205Z,99140.22
2023-03-08T00:52:30.850Z,99140.03
2023-03-08T00:54:58.497Z,99130.13
2023-03-08T00:57:27.589Z,99128.81
2023-03-08T00:59:55.380Z,99123.03
2023-03-08T01:02:23.060Z,99128.00
2023-03-08T01:04:50.748Z,99131.47
2023-03-08T01:07:19.372Z,99134.09
2023-03-08T01:09:47.273Z,99133.13
2023-03-08T01:12:15.025Z,99126.84
2023-03-08T01:14:44.017Z,99130.97
2023-03-08T01:17:11.652Z,99135.75
2023-03-08T01:19:39.536Z,99133.59
2023-03-08T01:22:07.205Z,99120.91
2023-03-08T01:24:34.802Z,99114.44
2023-03-08T01:27:02.543Z,99104.25
2023-03-08T01:29:30.192Z,99106.72
2023-03-08T01:31:59.243Z,99098.44
2023-03-08T01:34:26.979Z,99097.31
2023-03-08T01:36:54.787Z,99097.63
2023-03-08T01:39:22.510Z,99087.59
2023-03-08T01:41:50.524Z,99098.13
2023-03-08T01:44:19.997Z,99095.81
2023-03-08T01:46:48.163Z,99096.31
2023-03-08T01:49:20.810Z,99090.22
2023-03-08T01:51:53.031Z,99091.06
2023-03-08T01:54:24.796Z,99088.72
2023-03-08T01:56:55.747Z,99091.53
2023-03-08T01:59:24.836Z,99088.72
2023-03-08T02:01:52.767Z,99079.66
2023-03-08T02:04:21.808Z,99075.03
2023-03-08T02:06:49.615Z,99074.03
2023-03-08T02:09:17.494Z,99065.13
2023-03-08T02:11:45.544Z,99066.94
2023-03-08T02:14:13.200Z,99072.06
2023-03-08T02:16:40.881Z,99061.50
2023-03-08T02:19:13.831Z,99056.06
2023-03-08T02:21:43.130Z,99053.91
2023-03-08T02:24:21.250Z,99048.94
2023-03-08T02:26:50.486Z,99045.00
2023-03-08T02:29:18.240Z,99046.34
2023-03-08T02:31:45.998Z,99042.53
2023-03-08T02:34:13.648Z,99042.38
2023-03-08T02:36:41.362Z,99033.47
2023-03-08T02:39:09.082Z,99026.22
2023-03-08T02:41:38.186Z,99032.16
2023-03-08T02:44:05.980Z,99023.91
2023-03-08T02:46:34.145Z,99024.25
2023-03-08T02:49:01.750Z,99020.13
2023-03-08T02:51:29.391Z,99016.66
2023-03-08T02:53:57.125Z,99007.41
2023-03-08T02:56:24.789Z,99010.03
2023-03-08T02:58:54.211Z,99005.13
2023-03-08T03:01:22.067Z,99002.47
2023-03-08T03:03:50.155Z,99006.25
2023-03-08T03:06:19.692Z,98989.59
2023-03-08T03:08:48.099Z,98999.84
2023-03-08T03:11:17.117Z,98990.25
2023-03-08T03:13:45.524Z,98991.25
2023-03-08T03:16:16.744Z,98978.72
2023-03-08T03:18:44.692Z,98979.03
2023-03-08T03:21:14.809Z,98980.03
2023-03-08T03:23:43.036Z,98971.28
2023-03-08T03:26:13.461Z,98963.88
2023-03-08T03:28:41.099Z,98967.00
2023-03-08T03:31:10.100Z,98973.75
2023-03-08T03:33:39.767Z,98980.38
2023-03-08T03:36:09.652Z,98981.38
2023-03-08T03:38:37.711Z,98982.69
2023-03-08T03:41:08.122Z,98975.28
2023-03-08T03:43:36.106Z,98966.84
2023-03-08T03:46:06.862Z,98960.25
2023-03-08T03:48:35.638Z,98971.31
2023-03-08T03:51:06.713Z,98970.16
2023-03-08T03:53:36.393Z,98977.72
2023-03-08T03:56:05.972Z,98977.06
2023-03-08T03:58:33.773Z,98970.16
2023-03-08T04:01:01.749Z,98965.38
2023-03-08T04:03:29.448Z,98959.25
2023-03-08T04:06:08.594Z,98959.78
2023-03-08T04:08:41.923Z,98964.06
2023-03-08T04:11:10.342Z,98956.31
2023-03-08T04:13:38.204Z,98963.22
2023-03-08T04:16:12.955Z,98961.22
2023-03-08T04:18:40.787Z,98958.59
2023-03-08T04:21:09.984Z,98960.25
2023-03-08T04:23:38.331Z,98956.97
2023-03-08T04:26:07.134Z,98947.25
2023-03-08T04:28:35.907Z,98949.06
2023-03-08T04:31:12.941Z,98943.78
2023-03-08T04:33:40.774Z,98943.75
2023-03-08T04:36:10.667Z,98942.63
2023-03-08T04:38:38.393Z,98934.53
2023-03-08T04:41:11.767Z,98932.22
2023-03-08T04:43:40.280Z,98918.06
2023-03-08T04:46:09.041Z,98913.63
2023-03-08T04:48:36.822Z,98919.38
2023-03-08T04:51:07.428Z,98916.09
2023-03-08T04:53:39.062Z,98909.81
2023-03-08T04:56:07.562Z,98908.47
2023-03-08T04:58:36.660Z,98905.00
2023-03-08T05:01:10.708Z,98901.88
2023-03-08T05:03:38.313Z,98898.25
2023-03-08T05:06:06.668Z,98897.94
2023-03-08T05:08:35.990Z,98895.47
2023-03-08T05:11:04.819Z,98891.19
2023-03-08T05:13:34.940Z,98887.91
2023-03-08T05:16:03.352Z,98890.84
2023-03-08T05:18:31.177Z,98895.00
2023-03-08T05:21:00.851Z,98898.78
2023-03-08T05:23:30.209Z,98902.91
2023-03-08T05:26:00.905Z,98902.75
2023-03-08T05:28:30.937Z,98897.94
2023-03-08T05:31:02.495Z,98886.75
2023-03-08T05:33:30.566Z,98885.06
2023-03-08T05:35:58.563Z,98881.28
2023-03-08T05:38:26.998Z,98888.50
2023-03-08T05:40:54.989Z,98874.19
2023-03-08T05:43:25.192Z,98868.72
2023-03-08T05:45:57.309Z,98871.69
2023-03-08T05:48:25.691Z,98870.72
2023-03-08T05:50:53.596Z,98863.13
2023-03-08T05:53:21.463Z,98835.66
2023-03-08T05:55:49.389Z,98831.06
2023-03-08T05:58:17.312Z,98830.22
2023-03-08T06:00:46.459Z,98829.72
2023-03-08T06:03:14.095Z,98828.72
2023-03-08T06:05:41.762Z,98841.22
2023-03-08T06:08:09.405Z,98829.41
2023-03-08T06:10:37.072Z,98813.25
2023-03-08T06:13:04.768Z,98808.81
2023-03-08T06:15:32.405Z,98798.63
2023-03-08T06:18:01.369Z,98809.78
2023-03-08T06:20:29.074Z,98812.28
2023-03-08T06:22:56.805Z,98810.31
2023-03-08T06:25:24.433Z,98804.69
2023-03-08T06:27:52.094Z,98787.91
2023-03-08T06:30:20.012Z,98794.66
2023-03-08T06:32:49.299Z,98794.50
2023-03-08T06:35:18.362Z,98794.34
2023-03-08T06:37:46.039Z,98797.16
2023-03-08T06:40:14.347Z,98795.66
2023-03-08T06:42:42.113Z,98790.22
2023-03-08T06:45:11.525Z,98794.34
2023-03-08T06:47:39.196Z,98788.88
2023-03-08T06:50:07.542Z,98783.63
2023-03-08T06:52:37.882Z,98778.84
2023-03-08T06:55:06.116Z,98780.66
2023-03-08T06:57:33.787Z,98772.78
2023-03-08T07:00:01.636Z,98762.56
2023-03-08T07:02:29.385Z,98763.38
2023-03-08T07:04:57.101Z,98776.06
2023-03-08T07:07:24.795Z,98769.16
2023-03-08T07:09:53.785Z,98751.41
2023-03-08T07:12:21.514Z,98765.38
2023-03-08T07:14:49.259Z,98754.66
2023-03-08T07:17:16.915Z,98759.31
2023-03-08T07:19:44.634Z,98755.00
2023-03-08T07:22:12.983Z,98745.97
2023-03-08T07:24:40.751Z,98741.69
2023-03-08T07:27:09.959Z,98733.78
2023-03-08T07:29:37.656Z,98737.56
2023-03-08T07:32:05.902Z,98720.78
2023-03-08T07:34:33.584Z,98719.13
2023-03-08T07:37:01.249Z,98726.03
2023-03-08T07:39:28.906Z,98735.88
2023-03-08T07:41:56.557Z,98718.88
2023-03-08T07:44:25.670Z,98709.00
2023-03-08T07:46:53.241Z,98710.19
2023-03-08T07:49:20.925Z,98707.19
2023-03-08T07:51:51.345Z,98703.22
2023-03-08T07:54:20.963Z,98706.81
2023-03-08T07:56:49.388Z,98700.25
2023-03-08T07:59:17.051Z,98694.97
2023-03-08T08:01:46.062Z,98696.59
2023-03-08T08:04:14.245Z,98689.53
2023-03-08T08:06:42.502Z,98690.97
2023-03-08T08:09:13.258Z,98672.38
2023-03-08T08:11:40.925Z,98652.28
2023-03-08T08:14:09.168Z,98666.88
2023-03-08T08:16:36.938Z,98663.56
2023-03-08T08:19:06.271Z,98659.63
2023-03-08T08:21:33.979Z,98659.66
2023-03-08T08:24:02.054Z,98648.16
2023-03-08T08:26:29.682Z,98645.03
2023-03-08T08:28:57.534Z,98618.06
2023-03-08T08:31:28.919Z,98611.44
2023-03-08T08:33:56.647Z,98618.44
2023-03-08T08:36:26.391Z,98608.94
2023-03-08T08:38:54.612Z,98604.34
2023-03-08T08:41:24.122Z,98597.28
2023-03-08T08:43:52.340Z,98598.13
2023-03-08T08:46:20.073Z,98573.13
2023-03-08T08:48:47.658Z,98565.25
2023-03-08T08:51:15.817Z,98564.97
2023-03-08T08:53:45.115Z,98558.25
2023-03-08T08:56:25.572Z,98559.91
2023-03-08T08:58:54.981Z,98556.97
2023-03-08T09:01:24.409Z,98558.59
2023-03-08T09:03:53.034Z,98544.78
2023-03-08T09:06:22.807Z,98542.69
2023-03-08T09:08:52.936Z,98529.06
2023-03-08T09:11:20.685Z,98525.97
2023-03-08T09:13:48.954Z,98537.47
2023-03-08T09:16:19.654Z,98537.75
2023-03-08T09:18:47.343Z,98523.81
2023-03-08T09:21:15.333Z,98521.84
2023-03-08T09:23:43.274Z,98517.75
2023-03-08T09:26:13.134Z,98503.06
2023-03-08T09:28:40.990Z,98508.47
2023-03-08T09:31:13.043Z,98505.69
2023-03-08T09:33:41.543Z,98514.09
2023-03-08T09:36:09.708Z,98493.72
2023-03-08T09:38:37.616Z,98498.47
2023-03-08T09:41:21.667Z,98491.44
2023-03-08T09:44:04.939Z,98490.78
2023-03-08T09:46:41.933Z,98486.22
2023-03-08T09:49:16.342Z,98489.34
2023-03-08T09:51:49.970Z,98485.88
2023-03-08T09:54:22.843Z,98480.25
2023-03-08T09:56:53.302Z,98469.59
2023-03-08T09:59:26.740Z,98475.00
2023-03-08T10:02:01.475Z,98467.78
2023-03-08T10:04:46.948Z,98467.50
2023-03-08T10:07:23.352Z,98460.09
2023-03-08T10:10:03.495Z,98436.31
2023-03-08T10:12:44.051Z,98446.94
2023-03-08T10:15:16.531Z,98449.09
2023-03-08T10:17:49.101Z,98437.94
2023-03-08T10:20:21.072Z,98440.72
2023-03-08T10:22:57.177Z,98442.22
2023-03-08T10:25:27.089Z,98429.41
2023-03-08T10:27:57.758Z,98418.41
2023-03-08T10:30:27.891Z,98421.19
2023-03-08T10:33:00.690Z,98422.50
2023-03-08T10:35:34.667Z,98425.13
2023-03-08T10:38:02.486Z,98421.34
2023-03-08T10:40:30.260Z,98415.63
2023-03-08T10:43:05.412Z,98408.06
2023-03-08T10:45:33.857Z,98406.56
2023-03-08T10:48:03.547Z,98400.84
2023-03-08T10:50:35.469Z,98394.94
2023-03-08T10:53:11.083Z,98398.22
2023-03-08T10:55:44.639Z,98385.09
2023-03-08T10:58:29.627Z,98383.09
2023-03-08T11:00:59.212Z,98374.88
2023-03-08T11:03:28.289Z,98370.97
2023-03-08T11:05:58.767Z,98366.19
2023-03-08T11:08:29.505Z,98361.91
2023-03-08T11:11:11.598Z,98363.06
2023-03-08T11:13:42.753Z,98369.00
2023-03-08T11:16:28.954Z,98351.88
2023-03-08T11:19:03.125Z,98355.50
2023-03-08T11:21:43.636Z,98359.75
2023-03-08T11:24:22.719Z,98357.47
2023-03-08T11:27:04.211Z,98357.47
2023-03-08T11:29:45.771Z,98352.22
2023-03-08T11:32:32.034Z,98355.78
2023-03-08T11:35:22.314Z,98344.31
2023-03-08T11:37:57.112Z,98343.28
2023-03-08T11:40:28.234Z,98337.84
2023-03-08T11:43:10.672Z,98332.91
2023-03-08T11:45:50.550Z,98325.97
2023-03-08T11:48:52.927Z,98325.81
2023-03-08T11:51:26.426Z,98318.91
2023-03-08T11:54:03.948Z,98315.78
2023-03-08T11:56:41.826Z,98313.94
2023-03-08T11:59:20.855Z,98317.97
2023-03-08T12:01:55.672Z,98311.22
2023-03-08T12:04:31.763Z,98318.56
2023-03-08T12:07:03.514Z,98318.03
2023-03-08T12:09:37.183Z,98311.81
2023-03-08T12:12:12.232Z,98313.91
2023-03-08T12:14:52.887Z,98311.78
2023-03-08T12:17:27.105Z,98315.81
2023-03-08T12:19:55.135Z,98313.78
2023-03-08T12:22:36.361Z,98313.69
2023-03-08T12:25:15.064Z,98308.63
2023-03-08T12:27:48.938Z,98302.03
2023-03-08T12:30:29.226Z,98300.47
2023-03-08T12:33:00.345Z,98303.50
2023-03-08T12:35:32.090Z,98292.25
2023-03-08T12:38:02.020Z,98295.19
2023-03-08T12:40:39.814Z,98294.34
2023-03-08T12:43:12.459Z,98295.66
2023-03-08T12:45:41.991Z,98283.53
2023-03-08T12:48:19.656Z,98281.34
2023-03-08T12:51:00.366Z,98273.34
2023-03-08T12:53:36.120Z,98272.75
2023-03-08T12:56:07.409Z,98280.41
2023-03-08T12:58:38.021Z,98269.19
2023-03-08T13:01:08.837Z,98274.72
2023-03-08T13:03:43.023Z,98269.13
2023-03-08T13:06:47.409Z,98282.44
2023-03-08T13:09:22.128Z,98266.75
2023-03-08T13:11:58.056Z,98267.25
2023-03-08T13:14:28.451Z,98273.34
2023-03-08T13:16:56.460Z,98273.41
2023-03-08T13:19:30.057Z,98270.00
2023-03-08T13:22:06.918Z,98275.22
2023-03-08T13:24:42.529Z,98274.78
2023-03-08T13:27:22.563Z,98280.19
2023-03-08T13:29:50.438Z,98284.66
2023-03-08T13:32:20.743Z,98274.38
2023-03-08T13:35:00.222Z,98290.22
2023-03-08T13:37:30.140Z,98293.28
2023-03-08T13:39:59.711Z,98296.97
2023-03-08T13:42:29.278Z,98284.06
2023-03-08T13:45:08.738Z,98285.78
2023-03-08T13:47:39.261Z,98283.81
2023-03-08T13:50:09.824Z,98275.97
2023-03-08T13:52:39.148Z,98264.63
2023-03-08T13:55:13.994Z,98254.09
2023-03-08T13:57:42.712Z,98247.38
2023-03-08T14:00:29.295Z,98246.59
2023-03-08T14:02:58.418Z,98270.47
2023-03-08T14:05:29.257Z,98251.13
2023-03-08T14:08:03.034Z,98259.50
2023-03-08T14:10:36.842Z,98258.94
2023-03-08T14:13:05.853Z,98241.44
2023-03-08T14:15:39.315Z,98218.63
2023-03-08T14:18:09.460Z,98212.53
2023-03-08T14:20:38.573Z,98230.25
2023-03-08T14:23:06.376Z,98236.97
2023-03-08T14:25:34.415Z,98245.94
2023-03-08T14:28:02.124Z,98244.72
2023-03-08T14:30:32.334Z,98239.25
2023-03-08T14:33:03.681Z,98232.13
2023-03-08T14:35:34.397Z,98233.34
2023-03-08T14:38:04.548Z,98235.59
2023-03-08T14:40:35.425Z,98232.53
2023-03-08T14:43:05.700Z,98231.72
2023-03-08T14:45:36.665Z,98244.16
2023-03-08T14:48:22.974Z,98232.34
2023-03-08T14:50:56.771Z,98224.78
2023-03-08T14:53:31.956Z,98239.91
2023-03-08T14:56:01.431Z,98248.03
2023-03-08T14:58:31.688Z,98233.78
2023-03-08T15:01:01.912Z,98239.88
2023-03-08T15:03:30.551Z,98226.03
2023-03-08T15:05:58.744Z,98208.88
2023-03-08T15:08:26.992Z,98202.75
2023-03-08T15:10:56.313Z,98201.13
2023-03-08T15:13:25.401Z,98191.34
2023-03-08T15:15:53.092Z,98195.00
2023-03-08T15:18:21.386Z,98200.13
2023-03-08T15:20:51.206Z,98194.19
2023-03-08T15:23:21.768Z,98208.28
2023-03-08T15:25:49.553Z,98200.50
2023-03-08T15:28:21.032Z,98196.25
2023-03-08T15:30:49.015Z,98201.50
2023-03-08T15:33:16.702Z,98193.34
2023-03-08T15:35:44.402Z,98178.28
2023-03-08T15:38:14.078Z,98180.13
2023-03-08T15:40:42.701Z,98190.13
2023-03-08T15:43:11.439Z,98170.13
2023-03-08T15:45:40.878Z,98174.63
2023-03-08T15:48:13.107Z,98181.56
2023-03-08T15:50:40.964Z,98197.25
2023-03-08T15:53:09.240Z,98194.00
2023-03-08T15:55:38.850Z,98202.16
2023-03-08T15:58:08.345Z,98197.25
2023-03-08T16:00:36.869Z,98197.69
2023-03-08T16:03:08.525Z,98180.72
2023-03-08T16:05:36.184Z,98169.50
2023-03-08T16:08:04.846Z,98179.91
2023-03-08T16:10:40.253Z,98195.00
2023-03-08T16:13:08.736Z,98190.94
2023-03-08T16:15:39.878Z,98182.16
2023-03-08T16:18:08.977Z,98180.94
2023-03-08T16:20:37.009Z,98184.00
2023-03-08T16:23:12.712Z,98194.59
2023-03-08T16:25:43.095Z,98190.50
2023-03-08T16:28:11.443Z,98191.31
2023-03-08T16:30:41.982Z,98179.72
2023-03-08T16:33:10.964Z,98186.84
2023-03-08T16:35:38.812Z,98176.25
2023-03-08T16:38:06.473Z,98181.13
2023-03-08T16:40:34.114Z,98181.13
2023-03-08T16:43:01.771Z,98170.53
2023-03-08T16:45:29.639Z,98164.03
2023-03-08T16:47:57.366Z,98146.88
2023-03-08T16:50:27.364Z,98151.81
2023-03-08T16:52:55.857Z,98154.03
2023-03-08T16:55:24.207Z,98144.44
2023-03-08T16:57:51.867Z,98158.72
2023-03-08T17:00:20.661Z,98163.41
2023-03-08T17:02:48.450Z,98182.56
2023-03-08T17:05:16.182Z,98179.13
2023-03-08T17:07:47.840Z,98181.97
2023-03-08T17:10:15.591Z,98183.00
2023-03-08T17:12:43.275Z,98181.56
2023-03-08T17:15:12.034Z,98187.50
2023-03-08T17:17:39.803Z,98200.34
2023-03-08T17:20:08.885Z,98193.78
2023-03-08T17:22:36.709Z,98188.09
2023-03-08T17:25:06.530Z,98194.41
2023-03-08T17:27:34.399Z,98185.25
2023-03-08T17:30:03.710Z,98183.19
2023-03-08T17:32:32.263Z,98177.91
2023-03-08T17:34:59.958Z,98189.72
2023-03-08T17:37:27.713Z,98189.72
2023-03-08T17:39:55.412Z,98193.00
2023-03-08T17:42:24.806Z,98194.84
2023-03-08T17:44:52.539Z,98202.78
2023-03-08T17:47:20.199Z,98204.00
2023-03-08T17:49:48.071Z,98202.97
2023-03-08T17:52:15.901Z,98207.25
2023-03-08T17:54:43.826Z,98206.88
2023-03-08T17:57:11.616Z,98205.22
2023-03-08T17:59:40.679Z,98204.41
2023-03-08T18:02:08.467Z,98215.81
2023-03-08T18:04:36.275Z,98205.22
2023-03-08T18:07:04.654Z,98213.38
2023-03-08T18:09:32.511Z,98225.59
2023-03-08T18:12:00.229Z,98231.31
2023-03-08T18:14:39.219Z,98236.81
2023-03-08T18:17:10.088Z,98234.38
2023-03-08T18:19:37.863Z,98232.53
2023-03-08T18:22:05.696Z,98239.06
2023-03-08T18:24:33.999Z,98236.44
2023-03-08T18:27:01.867Z,98229.47
2023-03-08T18:29:29.600Z,98230.09
2023-03-08T18:31:57.270Z,98227.22
2023-03-08T18:34:26.570Z,98224.38
2023-03-08T18:36:55.869Z,98228.06
2023-03-08T18:39:23.664Z,98230.91
2023-03-08T18:41:53.856Z,98225.59
2023-03-08T18:44:21.556Z,98223.56
2023-03-08T18:46:49.213Z,98213.38
2023-03-08T18:49:17.129Z,98215.00
2023-03-08T18:51:46.763Z,98223.56
2023-03-08T18:54:20.673Z,98217.03
2023-03-08T18:56:49.808Z,98217.84
2023-03-08T18:59:17.949Z,98218.66
2023-03-08T19:01:45.951Z,98233.75
2023-03-08T19:04:14.469Z,98236.81
2023-03-08T19:06:43.169Z,98240.69
2023-03-08T19:09:14.312Z,98248.63
2023-03-08T19:11:42.597Z,98240.50
2023-03-08T19:14:11.806Z,98238.22
2023-03-08T19:16:39.806Z,98236.63
2023-03-08T19:19:09.856Z,98228.88
2023-03-08T19:21:39.391Z,98228.25
2023-03-08T19:24:07.497Z,98224.78
2023-03-08T19:26:38.170Z,98233.34
2023-03-08T19:29:09.419Z,98226.03
2023-03-08T19:31:39.832Z,98222.75
2023-03-08T19:34:07.815Z,98220.09
2023-03-08T19:36:36.562Z,98231.72
2023-03-08T19:39:05.190Z,98228.25
2023-03-08T19:41:33.020Z,98233.34
2023-03-08T19:44:06.798Z,98235.41
2023-03-08T19:46:34.996Z,98234.59
2023-03-08T19:49:02.763Z,98235.81
2023-03-08T19:51:30.461Z,98236.19
2023-03-08T19:53:58.117Z,98231.53
2023-03-08T19:56:26.406Z,98227.84
2023-03-08T19:58:55.951Z,98232.13
2023-03-08T20:01:25.074Z,98215.84
2023-03-08T20:03:52.913Z,98210.09
2023-03-08T20:06:25.126Z,98220.31
2023-03-08T20:08:55.497Z,98227.84
2023-03-08T20:11:23.319Z,98210.31
2023-03-08T20:13:51.437Z,98218.25
2023-03-08T20:16:20.557Z,98212.97
2023-03-08T20:18:50.150Z,98219.91
2023-03-08T20:21:18.246Z,98220.28
2023-03-08T20:23:45.938Z,98217.06
2023-03-08T20:26:14.273Z,98216.63
2023-03-08T20:28:41.988Z,98224.81
2023-03-08T20:31:10.358Z,98218.69
2023-03-08T20:33:38.381Z,98223.97
2023-03-08T20:36:08.170Z,98222.75
2023-03-08T20:38:35.882Z,98228.06
2023-03-08T20:41:05.381Z,98227.47
2023-03-08T20:43:34.163Z,98232.16
2023-03-08T20:46:05.831Z,98231.72
2023-03-08T20:48:34.525Z,98228.06
2023-03-08T20:51:02.993Z,98232.72
2023-03-08T20:53:33.070Z,98233.75
2023-03-08T20:56:06.089Z,98242.09
2023-03-08T20:58:34.092Z,98249.66
2023-03-08T21:01:02.060Z,98247.63
2023-03-08T21:03:29.827Z,98250.47
2023-03-08T21:05:57.496Z,98239.66
2023-03-08T21:08:25.221Z,98237.63
2023-03-08T21:10:58.129Z,98235.59
2023-03-08T21:13:25.898Z,98239.47
2023-03-08T21:16:01.341Z,98238.69
2023-03-08T21:18:29.103Z,98232.94
2023-03-08T21:20:56.859Z,98224.78
2023-03-08T21:23:24.818Z,98210.72
2023-03-08T21:25:54.501Z,98197.06
2023-03-08T21:28:22.487Z,98196.88
2023-03-08T21:30:50.275Z,98204.41
2023-03-08T21:33:17.899Z,98198.72
2023-03-08T21:35:45.765Z,98213.38
2023-03-08T21:38:13.454Z,98208.50
2023-03-08T21:40:42.723Z,98203.56
2023-03-08T21:43:11.806Z,98204.00
2023-03-08T21:45:40.566Z,98195.44
2023-03-08T21:48:09.109Z,98196.66
2023-03-08T21:50:39.765Z,98187.69
2023-03-08T21:53:07.811Z,98192.16
2023-03-08T21:55:39.263Z,98197.88
2023-03-08T21:58:07.402Z,98187.69
2023-03-08T22:00:36.553Z,98179.53
2023-03-08T22:03:04.259Z,98183.41
2023-03-08T22:05:32.690Z,98173.81
2023-03-08T22:08:00.411Z,98172.59
2023-03-08T22:10:28.065Z,98167.31
2023-03-08T22:12:55.758Z,98169.75
2023-03-08T22:15:23.428Z,98166.06
2023-03-08T22:17:52.904Z,98167.91
2023-03-08T22:20:21.116Z,98174.66
2023-03-08T22:22:48.892Z,98166.91
2023-03-08T22:25:16.679Z,98162.59
2023-03-08T22:27:44.347Z,98145.06
2023-03-08T22:30:13.129Z,98139.59
2023-03-08T22:32:41.962Z,98139.16
2023-03-08T22:35:13.256Z,98133.06
2023-03-08T22:37:41.869Z,98130.63
2023-03-08T22:40:12.933Z,98115.94
2023-03-08T22:42:41.171Z,98116.38
2023-03-08T22:45:09.919Z,98104.53
2023-03-08T22:47:37.720Z,98110.03
2023-03-08T22:50:06.192Z,98104.50
2023-03-08T22:52:35.600Z,98101.28
2023-03-08T22:55:04.457Z,98096.59
2023-03-08T22:57:32.581Z,98102.47
2023-03-08T23:00:00.227Z,98093.09
2023-03-08T23:02:28.523Z,98085.78
2023-03-08T23:04:57.704Z,98064.56
2023-03-08T23:07:25.600Z,98061.28
2023-03-08T23:09:54.883Z,98061.47
2023-03-08T23:12:22.645Z,98050.66
2023-03-08T23:14:50.328Z,98052.50
2023-03-08T23:17:18.666Z,98039.47
2023-03-08T23:19:46.368Z,98038.81
2023-03-08T23:22:14.067Z,98044.50
2023-03-08T23:24:41.739Z,98031.44
2023-03-08T23:27:10.999Z,98021.22
2023-03-08T23:29:39.152Z,98031.00
2023-03-08T23:32:07.571Z,98032.22
2023-03-08T23:34:35.494Z,98037.13
2023-03-08T23:37:04.184Z,98029.97
2023-03-08T23:39:32.158Z,98045.69
2023-03-08T23:41:59.807Z,98035.91
2023-03-08T23:44:28.931Z,98045.28
2023-03-08T23:46:56.676Z,98052.84
2023-03-08T23:49:24.357Z,98043.03
2023-03-08T23:51:52.019Z,98041.84
2023-03-08T23:54:19.689Z,98036.72
2023-03-08T23:56:47.436Z,98052.25
2023-03-08T23:59:18.492Z,98036.16
